Time;durP1;ratioP1;P1;durP2;ratioP2;P2;SDS_P1;SDS_P2;PMS_P1;PMS_P2;Temp;Humidity;BMP_temperature;BMP_pressure;BME280_temperature;BME280_humidity;BME280_pressure;Samples;Min_cycle;Max_cycle;Signal;HPM_P1;HPM_P2
2023/05/24 00:08:26;;;;;;;11.60;10.00;;;;;;;16.18;65.67;99055.55;437483;1251;139288;-61
2023/05/24 00:18:32;;;;;;;15.50;12.00;;;;;;;15.97;66.66;99061.61;436720;1248;140790;-62
2023/05/24 00:28:38;;;;;;;14.10;11.10;;;;;;;15.86;67.50;99062.40;436924;1253;140163;-62
2023/05/24 00:38:43;;;;;;;12.30;9.90;;;;;;;15.83;67.41;99058.98;437575;1248;139883;-62
2023/05/24 00:48:50;;;;;;;12.30;10.40;;;;;;;15.73;67.09;99056.19;437208;1252;140656;-61
2023/05/24 00:58:56;;;;;;;13.80;10.40;;;;;;;15.51;67.25;99056.34;437010;1251;140735;-62
2023/05/24 01:09:17;;;;;;;11.40;10.20;;;;;;;15.22;67.92;99053.86;437366;1252;140782;-62
2023/05/24 01:19:54;;;;;;;11.30;10.20;;;;;;;14.97;68.75;99058.95;436934;1253;141833;-63
2023/05/24 01:30:00;;;;;;;13.50;11.90;;;;;;;14.66;69.75;99065.88;437653;1251;139785;-61
2023/05/24 01:40:09;;;;;;;11.60;10.40;;;;;;;14.36;70.80;99065.54;437594;1253;140660;-61
2023/05/24 01:50:22;;;;;;;12.10;10.80;;;;;;;14.09;71.86;99072.32;437223;1252;139744;-61
2023/05/24 02:00:32;;;;;;;15.00;11.50;;;;;;;13.90;72.91;99083.22;436825;1253;139582;-64
2023/05/24 02:10:38;;;;;;;;;;;;;;;13.72;73.68;99099.54;437397;1251;139293;-61
2023/05/24 02:20:44;;;;;;;14.00;12.50;;;;;;;13.54;74.64;99105.64;436822;1251;125573;-61
2023/05/24 02:30:50;;;;;;;14.70;13.20;;;;;;;13.44;75.85;99108.67;436961;1253;140564;-62
2023/05/24 02:40:56;;;;;;;15.10;13.50;;;;;;;13.40;76.64;99114.45;436426;1251;141726;-61
2023/05/24 02:51:02;;;;;;;18.30;16.40;;;;;;;13.40;77.30;99119.56;436583;1251;139394;-61
2023/05/24 03:01:08;;;;;;;17.90;16.00;;;;;;;13.48;78.19;99119.31;436477;1253;139910;-61
2023/05/24 03:11:14;;;;;;;17.80;16.10;;;;;;;13.62;78.60;99128.48;436430;1253;141848;-63
2023/05/24 03:21:20;;;;;;;19.40;17.50;;;;;;;13.94;78.62;99128.82;436594;1253;139520;-61
2023/05/24 03:31:26;;;;;;;19.30;17.30;;;;;;;14.38;78.31;99138.58;436459;1253;141511;-61
2023/05/24 03:41:32;;;;;;;18.50;16.60;;;;;;;14.84;77.57;99153.15;436740;1254;140338;-61
2023/05/24 03:51:37;;;;;;;19.70;17.50;;;;;;;15.28;77.05;99163.12;436491;1253;139650;-62
2023/05/24 04:01:43;;;;;;;19.40;17.60;;;;;;;15.82;75.91;99160.79;437066;1251;139170;-61
2023/05/24 04:11:49;;;;;;;19.90;17.80;;;;;;;16.93;74.32;99172.43;437323;1251;140779;-62
2023/05/24 04:21:55;;;;;;;20.00;18.00;;;;;;;17.35;71.94;99179.98;436856;1253;139709;-62
2023/05/24 04:32:00;;;;;;;18.50;16.70;;;;;;;18.50;70.51;99188.23;436947;1251;141606;-61
2023/05/24 04:42:08;;;;;;;17.50;15.90;;;;;;;21.51;64.99;99196.21;436756;1253;139710;-63
2023/05/24 04:52:14;;;;;;;15.80;14.20;;;;;;;20.94;61.59;99201.06;436860;1254;139882;-63
2023/05/24 05:02:21;;;;;;;16.80;15.10;;;;;;;20.49;61.47;99210.70;436574;1251;139128;-62
2023/05/24 05:12:27;;;;;;;16.10;12.80;;;;;;;20.22;61.30;99220.74;437442;1253;140583;-62
2023/05/24 05:22:32;;;;;;;13.40;12.20;;;;;;;20.41;60.15;99226.95;436261;1253;140306;-61
2023/05/24 05:32:38;;;;;;;12.60;11.30;;;;;;;21.96;59.51;99235.49;436591;1253;139824;-62
2023/05/24 05:42:46;;;;;;;13.40;11.50;;;;;;;28.35;51.54;99237.13;436827;1251;139892;-62
2023/05/24 05:52:51;;;;;;;11.10;10.10;;;;;;;27.89;44.84;99245.73;437131;1251;139909;-62
2023/05/24 06:02:57;;;;;;;20.40;11.40;;;;;;;23.57;47.47;99262.94;436895;1253;139451;-62
2023/05/24 06:13:04;;;;;;;11.70;10.60;;;;;;;21.29;50.72;99275.88;436444;1251;139289;-61
2023/05/24 06:23:10;;;;;;;10.40;9.40;;;;;;;20.84;52.42;99289.15;436942;1251;139784;-63
2023/05/24 06:33:16;;;;;;;11.00;9.90;;;;;;;25.56;50.71;99299.11;437489;1251;138606;-62
2023/05/24 06:43:22;;;;;;;9.90;8.80;;;;;;;27.78;43.84;99311.15;436881;1249;138441;-62
2023/05/24 06:53:28;;;;;;;11.10;9.50;;;;;;;29.23;41.99;99322.75;436845;1253;139284;-62
2023/05/24 07:03:34;;;;;;;11.70;10.60;;;;;;;27.17;40.99;99334.17;436932;1251;138865;-62
2023/05/24 07:13:40;;;;;;;9.60;8.80;;;;;;;27.40;41.78;99344.58;437028;1251;138524;-61
2023/05/24 07:23:46;;;;;;;12.10;11.00;;;;;;;29.92;39.36;99353.04;436698;1253;178970;-62
2023/05/24 07:33:52;;;;;;;14.60;10.40;;;;;;;29.46;38.58;99371.23;436988;1253;139542;-62
2023/05/24 07:43:58;;;;;;;11.80;10.60;;;;;;;27.00;40.19;99385.16;436665;1253;139666;-62
2023/05/24 07:54:04;;;;;;;9.80;8.90;;;;;;;26.60;40.75;99396.41;437191;1253;139149;-62
2023/05/24 08:04:10;;;;;;;12.10;10.20;;;;;;;25.26;41.47;99411.31;437163;1251;140248;-62
2023/05/24 08:14:16;;;;;;;9.20;7.90;;;;;;;23.56;42.99;99431.98;437447;1248;139006;-62
2023/05/24 08:24:22;;;;;;;10.70;8.40;;;;;;;22.31;44.63;99441.91;436850;1249;139139;-62
2023/05/24 08:34:28;;;;;;;8.60;7.50;;;;;;;22.37;45.19;99456.92;436853;1251;138936;-62
2023/05/24 08:44:41;;;;;;;7.80;7.00;;;;;;;22.21;45.80;99465.27;436949;1251;138669;-64
2023/05/24 08:54:48;;;;;;;8.50;7.70;;;;;;;22.78;45.93;99475.21;436834;1250;138687;-62
2023/05/24 09:04:55;;;;;;;8.80;7.40;;;;;;;22.74;45.66;99478.52;436671;1253;139174;-62
2023/05/24 09:15:01;;;;;;;10.90;8.70;;;;;;;22.38;46.55;99482.89;437717;1249;138089;-62
2023/05/24 09:25:09;;;;;;;11.60;10.20;;;;;;;22.39;46.64;99491.65;436832;1251;138433;-61
2023/05/24 09:35:16;;;;;;;12.80;8.50;;;;;;;21.77;47.29;99509.73;437394;1251;139132;-62
2023/05/24 09:45:24;;;;;;;10.70;9.10;;;;;;;21.16;48.20;99529.88;436996;1250;139390;-61
2023/05/24 09:55:30;;;;;;;8.10;7.40;;;;;;;20.25;49.72;99537.29;437016;1253;139077;-61
2023/05/24 10:05:36;;;;;;;9.00;8.10;;;;;;;20.36;50.35;99539.36;437264;1251;139573;-62
2023/05/24 10:15:42;;;;;;;10.70;8.00;;;;;;;21.24;49.98;99548.23;437507;1251;139942;-63
2023/05/24 10:25:54;;;;;;;8.60;7.80;;;;;;;21.82;48.85;99551.94;437586;1248;138930;-63
2023/05/24 10:36:01;;;;;;;8.00;6.70;;;;;;;21.41;48.90;99566.77;437053;1248;138290;-61
2023/05/24 10:46:10;;;;;;;10.20;8.10;;;;;;;20.86;49.43;99585.33;437392;1251;139482;-62
2023/05/24 10:56:19;;;;;;;7.80;7.10;;;;;;;19.86;50.60;99593.55;436786;1248;138883;-61
2023/05/24 11:06:49;;;;;;;7.90;6.40;;;;;;;19.65;51.55;99601.14;453285;1250;139334;-61
2023/05/24 11:16:55;;;;;;;7.40;6.40;;;;;;;19.75;51.74;99602.98;440320;1250;138365;-62
2023/05/24 11:27:02;;;;;;;7.70;6.80;;;;;;;20.25;51.31;99610.84;443029;1250;138203;-61
2023/05/24 11:37:08;;;;;;;7.70;6.90;;;;;;;20.65;50.82;99609.69;436854;1250;138570;-61
2023/05/24 11:47:14;;;;;;;10.20;6.60;;;;;;;20.74;50.76;99612.17;437027;1251;139253;-61
2023/05/24 11:57:29;;;;;;;10.10;9.20;;;;;;;20.65;50.88;99621.09;437365;1251;138770;-61
2023/05/24 12:07:36;;;;;;;10.60;9.60;;;;;;;19.84;51.43;99629.23;437468;1253;138678;-61
2023/05/24 12:17:43;;;;;;;11.00;10.00;;;;;;;19.26;52.86;99639.47;436883;1251;139124;-61
2023/05/24 12:27:52;;;;;;;10.90;9.90;;;;;;;19.22;52.87;99653.49;436836;1253;139585;-62
2023/05/24 12:38:01;;;;;;;12.10;10.90;;;;;;;18.66;53.94;99662.34;436680;1253;139704;-63
2023/05/24 12:48:07;;;;;;;14.30;12.80;;;;;;;18.32;54.52;99664.20;436868;1250;139819;-62
2023/05/24 12:58:15;;;;;;;10.00;8.80;;;;;;;18.22;55.35;99654.46;436496;1250;139152;-60
2023/05/24 13:08:21;;;;;;;10.20;9.20;;;;;;;18.19;55.44;99653.66;436810;1253;138286;-61
2023/05/24 13:18:27;;;;;;;16.30;10.90;;;;;;;17.90;56.17;99656.19;436689;1252;138428;-61
2023/05/24 13:28:34;;;;;;;11.30;10.20;;;;;;;17.71;56.73;99665.94;436618;1251;139647;-61
2023/05/24 13:38:40;;;;;;;10.10;9.10;;;;;;;17.66;57.06;99652.89;437021;1253;138663;-61
2023/05/24 13:48:46;;;;;;;11.40;9.30;;;;;;;17.58;57.21;99653.12;436330;1253;138938;-61
2023/05/24 13:58:52;;;;;;;15.50;9.30;;;;;;;17.48;57.47;99661.25;436756;1253;139583;-61
2023/05/24 14:08:58;;;;;;;9.50;7.60;;;;;;;17.15;57.99;99659.44;437039;1249;138430;-60
2023/05/24 14:19:04;;;;;;;9.00;8.00;;;;;;;17.29;58.33;99655.39;436942;1253;138388;-61
2023/05/24 14:29:10;;;;;;;12.50;7.40;;;;;;;17.41;57.93;99657.17;437145;1250;139663;-62
2023/05/24 14:39:16;;;;;;;10.30;6.90;;;;;;;17.28;58.15;99665.06;437062;1253;138277;-62
2023/05/24 14:49:22;;;;;;;6.30;5.00;;;;;;;17.35;58.30;99669.50;437058;1251;138793;-62
2023/05/24 14:59:28;;;;;;;5.80;5.30;;;;;;;17.29;58.19;99680.86;437315;1253;139426;-63
2023/05/24 15:09:34;;;;;;;6.10;5.50;;;;;;;17.10;58.51;99679.38;436819;1249;139225;-61
2023/05/24 15:19:40;;;;;;;10.70;6.50;;;;;;;17.10;58.74;99678.19;436561;1251;139231;-62
2023/05/24 15:29:46;;;;;;;6.80;6.10;;;;;;;17.01;59.05;99682.86;437309;1253;138406;-62
2023/05/24 15:39:52;;;;;;;6.40;5.80;;;;;;;16.88;59.39;99682.00;436725;1251;140030;-62
2023/05/24 15:49:58;;;;;;;8.20;5.80;;;;;;;16.59;59.92;99673.96;436819;1251;139104;-61
2023/05/24 16:00:05;;;;;;;6.90;6.20;;;;;;;16.59;60.29;99673.44;436564;1251;140842;-61
2023/05/24 16:10:11;;;;;;;6.90;6.20;;;;;;;16.56;60.33;99687.60;437084;1253;141096;-62
2023/05/24 16:20:17;;;;;;;8.70;6.80;;;;;;;16.46;60.46;99709.19;436941;1249;139235;-60
2023/05/24 16:30:23;;;;;;;8.20;7.50;;;;;;;16.15;61.00;99717.67;436590;1251;139285;-61
2023/05/24 16:40:29;;;;;;;9.70;8.10;;;;;;;15.85;61.52;99723.30;436338;1251;139552;-62
2023/05/24 16:50:35;;;;;;;8.60;7.80;;;;;;;15.53;62.16;99730.52;436859;1251;138915;-61
2023/05/24 17:00:41;;;;;;;11.40;9.20;;;;;;;15.31;62.92;99739.87;436870;1250;140846;-62
2023/05/24 17:10:50;;;;;;;11.30;9.20;;;;;;;15.14;63.48;99744.27;436903;1253;139816;-61
2023/05/24 17:20:56;;;;;;;11.40;9.10;;;;;;;14.99;63.83;99751.27;437025;1253;139083;-60
2023/05/24 17:31:02;;;;;;;12.70;8.10;;;;;;;14.71;64.54;99771.96;437198;1248;139372;-61
2023/05/24 17:41:09;;;;;;;11.10;9.90;;;;;;;14.60;65.26;99785.80;436796;1251;140675;-62
2023/05/24 17:51:18;;;;;;;11.10;9.60;;;;;;;14.46;65.85;99797.10;436621;1253;139761;-61
2023/05/24 18:01:24;;;;;;;11.10;9.50;;;;;;;14.34;66.36;99793.59;436973;1248;140216;-61
2023/05/24 18:11:30;;;;;;;12.80;11.50;;;;;;;14.16;66.79;99797.42;436901;1253;140971;-61
2023/05/24 18:21:36;;;;;;;18.60;11.80;;;;;;;14.02;67.28;99800.80;436965;1250;139860;-61
2023/05/24 18:31:42;;;;;;;13.30;11.20;;;;;;;13.84;67.66;99811.24;437484;1251;139955;-60
2023/05/24 18:41:48;;;;;;;10.90;9.70;;;;;;;13.66;68.25;99818.17;437107;1251;140135;-61
2023/05/24 18:51:54;;;;;;;15.10;10.60;;;;;;;13.52;68.95;99824.84;436946;1251;140754;-61
2023/05/24 19:02:00;;;;;;;14.40;10.10;;;;;;;13.33;69.60;99832.64;437065;1249;139721;-61
2023/05/24 19:12:09;;;;;;;12.30;11.00;;;;;;;13.25;70.27;99846.59;437721;1253;139778;-62
2023/05/24 19:22:15;;;;;;;14.10;10.50;;;;;;;13.14;70.83;99838.02;437634;1251;174657;-61
2023/05/24 19:32:21;;;;;;;14.60;11.70;;;;;;;13.01;71.39;99837.86;437195;1249;139268;-61
2023/05/24 19:42:27;;;;;;;12.90;11.60;;;;;;;12.92;72.03;99850.67;436878;1251;141361;-60
2023/05/24 19:52:33;;;;;;;13.50;11.10;;;;;;;12.91;72.56;99851.76;437638;1251;140647;-62
2023/05/24 20:02:39;;;;;;;14.50;11.30;;;;;;;12.94;72.85;99861.19;436824;1251;139200;-61
2023/05/24 20:12:45;;;;;;;13.90;10.70;;;;;;;12.94;73.04;99864.02;436715;1250;139706;-61
2023/05/24 20:22:51;;;;;;;13.90;11.60;;;;;;;12.97;73.31;99875.61;436574;1251;140210;-62
2023/05/24 20:32:57;;;;;;;15.50;11.40;;;;;;;13.01;73.53;99881.30;436624;1251;139123;-61
2023/05/24 20:43:04;;;;;;;14.00;11.40;;;;;;;12.93;73.56;99879.07;436840;1253;139760;-62
2023/05/24 20:53:10;;;;;;;11.50;10.20;;;;;;;12.89;73.88;99880.00;436919;1253;140926;-63
2023/05/24 21:03:16;;;;;;;16.00;11.30;;;;;;;12.83;74.16;99872.16;437322;1253;140836;-61
2023/05/24 21:13:24;;;;;;;16.20;14.30;;;;;;;12.78;74.45;99853.55;437661;1253;139380;-63
2023/05/24 21:23:30;;;;;;;13.30;12.00;;;;;;;12.72;74.78;99856.20;436821;1251;140832;-61
2023/05/24 21:33:38;;;;;;;16.90;13.30;;;;;;;12.67;75.16;99867.81;437031;1253;140722;-62
2023/05/24 21:43:44;;;;;;;14.20;12.40;;;;;;;12.62;75.49;99873.02;437763;1251;140394;-62
2023/05/24 21:53:50;;;;;;;16.20;14.60;;;;;;;12.63;75.83;99883.14;436730;1252;139834;-62
2023/05/24 22:03:56;;;;;;;17.60;15.80;;;;;;;12.59;76.25;99892.77;436836;1252;140151;-63
2023/05/24 22:14:02;;;;;;;17.30;14.90;;;;;;;12.54;76.50;99894.66;437037;1253;139091;-62
2023/05/24 22:24:08;;;;;;;15.30;13.00;;;;;;;12.49;76.82;99889.17;436826;1252;139858;-64
2023/05/24 22:34:15;;;;;;;18.80;15.20;;;;;;;12.49;77.17;99896.07;436867;1253;141881;-63
2023/05/24 22:44:21;;;;;;;16.70;14.10;;;;;;;12.48;77.35;99898.21;437035;1253;139192;-62
2023/05/24 22:54:26;;;;;;;18.20;14.30;;;;;;;12.46;77.67;99901.84;436897;1254;140197;-62
2023/05/24 23:04:32;;;;;;;18.40;15.00;;;;;;;12.46;77.90;99903.59;436539;1251;139271;-62
2023/05/24 23:14:40;;;;;;;16.30;14.00;;;;;;;12.49;78.01;99906.94;436480;1253;140221;-61
2023/05/24 23:24:46;;;;;;;22.70;16.30;;;;;;;12.47;78.20;99911.78;437219;1253;140625;-63
2023/05/24 23:34:52;;;;;;;17.50;15.70;;;;;;;12.47;78.36;99927.77;436454;1253;140767;-62
2023/05/24 23:44:57;;;;;;;20.40;14.60;;;;;;;12.47;78.60;99926.20;436689;1253;139756;-62
2023/05/24 23:55:04;;;;;;;22.00;16.50;;;;;;;12.40;78.96;99920.19;436383;1253;140444;-62
